sensor_id;sensor_type;location;lat;lon;timestamp;temperature;humidity
59067;DHT22;44854;50.838;4.438;2022-10-16T05:04:08;14.60;99.90
59067;DHT22;44854;50.838;4.438;2022-10-16T05:06:34;14.50;99.90
59067;DHT22;44854;50.838;4.438;2022-10-16T05:09:00;14.40;99.90
59067;DHT22;44854;50.838;4.438;2022-10-16T05:11:25;14.40;99.90
59067;DHT22;44854;50.838;4.438;2022-10-16T05:13:52;14.40;99.90
59067;DHT22;44854;50.838;4.438;2022-10-16T05:16:17;14.50;99.90
59067;DHT22;44854;50.838;4.438;2022-10-16T05:18:43;14.40;99.90
59067;DHT22;44854;50.838;4.438;2022-10-16T05:21:08;14.40;99.90
59067;DHT22;44854;50.838;4.438;2022-10-16T05:23:34;14.40;99.90
59067;DHT22;44854;50.838;4.438;2022-10-16T05:26:00;14.50;99.90
59067;DHT22;44854;50.838;4.438;2022-10-16T05:28:28;14.50;99.90
59067;DHT22;44854;50.838;4.438;2022-10-16T05:30:55;14.40;99.90
59067;DHT22;44854;50.838;4.438;2022-10-16T05:33:21;14.40;99.90
59067;DHT22;44854;50.838;4.438;2022-10-16T05:35:47;14.40;99.90
59067;DHT22;44854;50.838;4.438;2022-10-16T05:38:12;14.40;99.90
59067;DHT22;44854;50.838;4.438;2022-10-16T05:40:38;14.40;99.90
59067;DHT22;44854;50.838;4.438;2022-10-16T05:43:03;14.40;99.90
59067;DHT22;44854;50.838;4.438;2022-10-16T05:45:29;14.30;99.90
59067;DHT22;44854;50.838;4.438;2022-10-16T05:47:54;14.40;99.90
59067;DHT22;44854;50.838;4.438;2022-10-16T05:50:20;14.30;99.90
59067;DHT22;44854;50.838;4.438;2022-10-16T05:52:46;14.30;99.90
59067;DHT22;44854;50.838;4.438;2022-10-16T05:55:11;14.20;99.90
59067;DHT22;44854;50.838;4.438;2022-10-16T05:57:37;14.30;99.90
59067;DHT22;44854;50.838;4.438;2022-10-16T06:00:03;14.30;99.90
59067;DHT22;44854;50.838;4.438;2022-10-16T06:02:28;14.30;99.90
59067;DHT22;44854;50.838;4.438;2022-10-16T06:04:54;14.20;99.90
59067;DHT22;44854;50.838;4.438;2022-10-16T06:07:19;14.20;99.90
59067;DHT22;44854;50.838;4.438;2022-10-16T06:09:54;14.30;99.90
59067;DHT22;44854;50.838;4.438;2022-10-16T06:12:20;14.30;99.90
59067;DHT22;44854;50.838;4.438;2022-10-16T06:14:45;14.30;99.90
59067;DHT22;44854;50.838;4.438;2022-10-16T06:17:14;14.30;99.90
59067;DHT22;44854;50.838;4.438;2022-10-16T06:19:39;14.30;99.90
59067;DHT22;44854;50.838;4.438;2022-10-16T06:22:05;14.20;99.90
59067;DHT22;44854;50.838;4.438;2022-10-16T06:24:31;14.20;99.90
59067;DHT22;44854;50.838;4.438;2022-10-16T06:26:57;14.20;99.90
59067;DHT22;44854;50.838;4.438;2022-10-16T06:29:22;14.20;99.90
59067;DHT22;44854;50.838;4.438;2022-10-16T06:31:48;14.20;99.90
59067;DHT22;44854;50.838;4.438;2022-10-16T06:34:13;14.20;99.90
59067;DHT22;44854;50.838;4.438;2022-10-16T06:36:39;14.20;99.90
59067;DHT22;44854;50.838;4.438;2022-10-16T06:39:05;14.10;99.90
59067;DHT22;44854;50.838;4.438;2022-10-16T06:41:32;14.20;99.90
59067;DHT22;44854;50.838;4.438;2022-10-16T06:43:58;14.20;99.90
59067;DHT22;44854;50.838;4.438;2022-10-16T06:46:24;14.30;99.90
59067;DHT22;44854;50.838;4.438;2022-10-16T06:48:50;14.30;99.90
59067;DHT22;44854;50.838;4.438;2022-10-16T06:51:17;14.30;99.90
59067;DHT22;44854;50.838;4.438;2022-10-16T06:53:43;14.40;99.90
59067;DHT22;44854;50.838;4.438;2022-10-16T06:56:10;14.40;99.90
59067;DHT22;44854;50.838;4.438;2022-10-16T06:58:36;14.40;99.90
59067;DHT22;44854;50.838;4.438;2022-10-16T07:01:02;14.50;99.90
59067;DHT22;44854;50.838;4.438;2022-10-16T07:03:28;14.50;99.90
59067;DHT22;44854;50.838;4.438;2022-10-16T07:05:53;14.50;99.90
59067;DHT22;44854;50.838;4.438;2022-10-16T07:08:19;14.60;99.90
59067;DHT22;44854;50.838;4.438;2022-10-16T07:10:44;14.70;99.90
59067;DHT22;44854;50.838;4.438;2022-10-16T07:13:10;14.70;99.90
59067;DHT22;44854;50.838;4.438;2022-10-16T07:15:38;14.70;99.90
59067;DHT22;44854;50.838;4.438;2022-10-16T07:18:03;14.70;99.90
59067;DHT22;44854;50.838;4.438;2022-10-16T07:20:29;14.70;99.90
59067;DHT22;44854;50.838;4.438;2022-10-16T07:22:55;14.70;99.90
59067;DHT22;44854;50.838;4.438;2022-10-16T07:25:20;14.70;99.90
59067;DHT22;44854;50.838;4.438;2022-10-16T07:27:46;14.70;99.90
59067;DHT22;44854;50.838;4.438;2022-10-16T07:30:11;14.80;99.90
59067;DHT22;44854;50.838;4.438;2022-10-16T07:32:37;14.80;99.90
59067;DHT22;44854;50.838;4.438;2022-10-16T07:35:03;14.90;99.90
59067;DHT22;44854;50.838;4.438;2022-10-16T07:37:29;14.90;99.90
59067;DHT22;44854;50.838;4.438;2022-10-16T07:39:54;14.90;99.90
59067;DHT22;44854;50.838;4.438;2022-10-16T07:42:20;15.00;99.90
59067;DHT22;44854;50.838;4.438;2022-10-16T07:44:45;15.10;99.90
59067;DHT22;44854;50.838;4.438;2022-10-16T07:47:11;15.10;99.90
59067;DHT22;44854;50.838;4.438;2022-10-16T07:49:36;15.10;99.90
59067;DHT22;44854;50.838;4.438;2022-10-16T07:52:02;15.20;99.90
59067;DHT22;44854;50.838;4.438;2022-10-16T07:54:27;15.20;99.90
59067;DHT22;44854;50.838;4.438;2022-10-16T07:56:53;15.20;99.90
59067;DHT22;44854;50.838;4.438;2022-10-16T07:59:18;15.30;99.90
59067;DHT22;44854;50.838;4.438;2022-10-16T08:01:44;15.40;99.90
59067;DHT22;44854;50.838;4.438;2022-10-16T08:04:09;15.40;99.90
59067;DHT22;44854;50.838;4.438;2022-10-16T08:06:36;15.40;99.90
59067;DHT22;44854;50.838;4.438;2022-10-16T08:09:02;15.40;99.90
59067;DHT22;44854;50.838;4.438;2022-10-16T08:11:28;15.50;99.90
59067;DHT22;44854;50.838;4.438;2022-10-16T08:13:53;15.50;99.90
59067;DHT22;44854;50.838;4.438;2022-10-16T08:16:19;15.50;99.90
59067;DHT22;44854;50.838;4.438;2022-10-16T08:18:45;15.50;99.90
59067;DHT22;44854;50.838;4.438;2022-10-16T08:21:14;15.50;99.90
59067;DHT22;44854;50.838;4.438;2022-10-16T08:23:40;15.50;99.90
59067;DHT22;44854;50.838;4.438;2022-10-16T08:26:06;15.70;99.90
59067;DHT22;44854;50.838;4.438;2022-10-16T08:28:32;15.70;99.90
59067;DHT22;44854;50.838;4.438;2022-10-16T08:31:05;15.70;99.90
59067;DHT22;44854;50.838;4.438;2022-10-16T08:33:30;15.90;99.90
59067;DHT22;44854;50.838;4.438;2022-10-16T08:35:56;16.00;99.90
59067;DHT22;44854;50.838;4.438;2022-10-16T08:38:21;16.10;99.90
59067;DHT22;44854;50.838;4.438;2022-10-16T08:40:47;16.20;99.90
59067;DHT22;44854;50.838;4.438;2022-10-16T08:48:27;16.50;99.90
59067;DHT22;44854;50.838;4.438;2022-10-16T08:50:54;16.40;99.90
59067;DHT22;44854;50.838;4.438;2022-10-16T08:53:24;16.60;99.90
59067;DHT22;44854;50.838;4.438;2022-10-16T08:55:51;16.70;99.90
59067;DHT22;44854;50.838;4.438;2022-10-16T08:58:18;16.80;99.90
59067;DHT22;44854;50.838;4.438;2022-10-16T09:00:48;16.90;99.90
59067;DHT22;44854;50.838;4.438;2022-10-16T09:13:48;16.90;99.90
59067;DHT22;44854;50.838;4.438;2022-10-16T09:18:45;17.00;99.90
59067;DHT22;44854;50.838;4.438;2022-10-16T09:21:33;17.00;99.90
59067;DHT22;44854;50.838;4.438;2022-10-16T09:24:07;17.30;99.90
59067;DHT22;44854;50.838;4.438;2022-10-16T09:26:34;17.40;99.90
59067;DHT22;44854;50.838;4.438;2022-10-16T09:29:00;17.50;99.90
59067;DHT22;44854;50.838;4.438;2022-10-16T09:31:25;17.60;99.90
59067;DHT22;44854;50.838;4.438;2022-10-16T09:33:52;17.60;99.90
59067;DHT22;44854;50.838;4.438;2022-10-16T09:36:18;17.50;99.90
59067;DHT22;44854;50.838;4.438;2022-10-16T09:38:45;17.50;99.90
59067;DHT22;44854;50.838;4.438;2022-10-16T09:44:00;17.40;99.90
59067;DHT22;44854;50.838;4.438;2022-10-16T09:46:29;17.40;99.90
59067;DHT22;44854;50.838;4.438;2022-10-16T09:48:59;17.40;99.90
59067;DHT22;44854;50.838;4.438;2022-10-16T09:51:29;17.50;99.90
59067;DHT22;44854;50.838;4.438;2022-10-16T09:54:16;17.70;99.90
59067;DHT22;44854;50.838;4.438;2022-10-16T09:56:40;17.70;99.90
59067;DHT22;44854;50.838;4.438;2022-10-16T09:59:13;17.70;99.90
59067;DHT22;44854;50.838;4.438;2022-10-16T10:01:40;17.70;99.90
59067;DHT22;44854;50.838;4.438;2022-10-16T10:04:06;17.80;99.90
59067;DHT22;44854;50.838;4.438;2022-10-16T10:06:36;18.00;99.90
59067;DHT22;44854;50.838;4.438;2022-10-16T10:09:04;18.00;99.90
59067;DHT22;44854;50.838;4.438;2022-10-16T10:11:37;17.90;99.90
59067;DHT22;44854;50.838;4.438;2022-10-16T10:16:38;18.10;99.90
59067;DHT22;44854;50.838;4.438;2022-10-16T10:19:03;18.30;99.90
59067;DHT22;44854;50.838;4.438;2022-10-16T10:21:29;18.30;99.90
59067;DHT22;44854;50.838;4.438;2022-10-16T10:23:57;18.20;99.90
59067;DHT22;44854;50.838;4.438;2022-10-16T10:26:27;18.20;99.90
59067;DHT22;44854;50.838;4.438;2022-10-16T10:31:36;18.10;99.90
59067;DHT22;44854;50.838;4.438;2022-10-16T10:36:42;18.10;99.90
59067;DHT22;44854;50.838;4.438;2022-10-16T10:39:22;18.10;99.90
59067;DHT22;44854;50.838;4.438;2022-10-16T10:45:02;18.10;99.90
59067;DHT22;44854;50.838;4.438;2022-10-16T10:52:59;18.60;99.90
59067;DHT22;44854;50.838;4.438;2022-10-16T11:00:50;19.20;99.90
59067;DHT22;44854;50.838;4.438;2022-10-16T11:03:31;19.30;99.90
59067;DHT22;44854;50.838;4.438;2022-10-16T11:08:28;19.60;99.90
59067;DHT22;44854;50.838;4.438;2022-10-16T11:11:02;19.70;99.90
59067;DHT22;44854;50.838;4.438;2022-10-16T11:16:02;19.40;99.90
59067;DHT22;44854;50.838;4.438;2022-10-16T11:21:12;19.60;99.90
59067;DHT22;44854;50.838;4.438;2022-10-16T11:23:44;19.60;99.90
59067;DHT22;44854;50.838;4.438;2022-10-16T11:26:19;19.50;99.90
59067;DHT22;44854;50.838;4.438;2022-10-16T11:28:49;19.60;99.90
59067;DHT22;44854;50.838;4.438;2022-10-16T11:31:17;19.80;99.90
59067;DHT22;44854;50.838;4.438;2022-10-16T11:37:02;20.30;99.90
59067;DHT22;44854;50.838;4.438;2022-10-16T11:39:29;20.30;99.90
59067;DHT22;44854;50.838;4.438;2022-10-16T11:49:45;20.30;99.90
59067;DHT22;44854;50.838;4.438;2022-10-16T11:55:13;19.90;99.90
59067;DHT22;44854;50.838;4.438;2022-10-16T11:57:40;19.80;99.90
59067;DHT22;44854;50.838;4.438;2022-10-16T12:00:19;19.80;99.90
59067;DHT22;44854;50.838;4.438;2022-10-16T12:03:08;19.80;99.90
59067;DHT22;44854;50.838;4.438;2022-10-16T12:08:17;19.90;99.90
59067;DHT22;44854;50.838;4.438;2022-10-16T12:10:44;19.90;99.90
59067;DHT22;44854;50.838;4.438;2022-10-16T12:13:27;20.00;99.90
59067;DHT22;44854;50.838;4.438;2022-10-16T12:16:03;20.00;99.90
59067;DHT22;44854;50.838;4.438;2022-10-16T12:18:28;20.10;99.90
59067;DHT22;44854;50.838;4.438;2022-10-16T12:20:55;20.10;99.90
59067;DHT22;44854;50.838;4.438;2022-10-16T12:23:24;20.20;99.90
59067;DHT22;44854;50.838;4.438;2022-10-16T12:25:57;20.20;99.90
59067;DHT22;44854;50.838;4.438;2022-10-16T12:28:27;20.00;99.90
59067;DHT22;44854;50.838;4.438;2022-10-16T12:30:53;19.90;99.90
59067;DHT22;44854;50.838;4.438;2022-10-16T12:33:24;19.90;99.90
59067;DHT22;44854;50.838;4.438;2022-10-16T12:35:50;19.70;99.90
59067;DHT22;44854;50.838;4.438;2022-10-16T12:41:03;19.80;99.90
59067;DHT22;44854;50.838;4.438;2022-10-16T12:46:04;20.00;99.90
59067;DHT22;44854;50.838;4.438;2022-10-16T12:48:30;19.90;99.90
59067;DHT22;44854;50.838;4.438;2022-10-16T12:50:56;19.70;99.90
59067;DHT22;44854;50.838;4.438;2022-10-16T12:53:23;19.60;99.90
59067;DHT22;44854;50.838;4.438;2022-10-16T12:55:54;19.70;99.90
59067;DHT22;44854;50.838;4.438;2022-10-16T12:58:32;19.60;99.90
59067;DHT22;44854;50.838;4.438;2022-10-16T13:01:04;19.80;99.90
59067;DHT22;44854;50.838;4.438;2022-10-16T13:21:38;20.50;99.90
59067;DHT22;44854;50.838;4.438;2022-10-16T13:29:16;20.80;99.90
59067;DHT22;44854;50.838;4.438;2022-10-16T13:31:42;20.60;99.90
59067;DHT22;44854;50.838;4.438;2022-10-16T13:34:11;20.50;99.90
59067;DHT22;44854;50.838;4.438;2022-10-16T13:36:45;20.50;99.90
59067;DHT22;44854;50.838;4.438;2022-10-16T13:39:12;20.50;99.90
59067;DHT22;44854;50.838;4.438;2022-10-16T13:41:38;20.70;99.90
59067;DHT22;44854;50.838;4.438;2022-10-16T13:44:04;20.80;99.90
59067;DHT22;44854;50.838;4.438;2022-10-16T13:46:30;20.70;99.90
59067;DHT22;44854;50.838;4.438;2022-10-16T13:49:03;20.80;99.90
59067;DHT22;44854;50.838;4.438;2022-10-16T13:51:29;20.70;99.90
59067;DHT22;44854;50.838;4.438;2022-10-16T13:53:55;20.50;99.90
59067;DHT22;44854;50.838;4.438;2022-10-16T13:56:22;20.40;99.90
59067;DHT22;44854;50.838;4.438;2022-10-16T13:59:03;20.50;99.90
59067;DHT22;44854;50.838;4.438;2022-10-16T14:01:35;20.60;99.90
59067;DHT22;44854;50.838;4.438;2022-10-16T14:04:07;20.60;99.90
59067;DHT22;44854;50.838;4.438;2022-10-16T14:06:33;20.60;99.90
59067;DHT22;44854;50.838;4.438;2022-10-16T14:11:55;20.50;99.90
59067;DHT22;44854;50.838;4.438;2022-10-16T14:14:22;20.50;99.90
59067;DHT22;44854;50.838;4.438;2022-10-16T14:16:48;20.50;99.90
59067;DHT22;44854;50.838;4.438;2022-10-16T14:19:20;20.40;99.90
59067;DHT22;44854;50.838;4.438;2022-10-16T14:21:48;20.40;99.90
59067;DHT22;44854;50.838;4.438;2022-10-16T14:24:22;20.50;99.90
59067;DHT22;44854;50.838;4.438;2022-10-16T14:26:49;20.50;99.90
59067;DHT22;44854;50.838;4.438;2022-10-16T14:29:18;20.40;99.90
59067;DHT22;44854;50.838;4.438;2022-10-16T14:36:58;20.50;99.90
59067;DHT22;44854;50.838;4.438;2022-10-16T14:39:26;20.60;99.90
59067;DHT22;44854;50.838;4.438;2022-10-16T14:41:52;20.60;99.90
59067;DHT22;44854;50.838;4.438;2022-10-16T14:44:18;20.50;99.90
59067;DHT22;44854;50.838;4.438;2022-10-16T14:46:44;20.50;99.90
59067;DHT22;44854;50.838;4.438;2022-10-16T14:51:36;20.40;99.90
59067;DHT22;44854;50.838;4.438;2022-10-16T14:54:02;20.30;99.90
59067;DHT22;44854;50.838;4.438;2022-10-16T14:56:34;20.40;99.90
59067;DHT22;44854;50.838;4.438;2022-10-16T14:59:07;20.40;99.90
59067;DHT22;44854;50.838;4.438;2022-10-16T15:01:35;20.30;99.90
59067;DHT22;44854;50.838;4.438;2022-10-16T15:04:00;20.30;99.90
59067;DHT22;44854;50.838;4.438;2022-10-16T15:06:26;20.30;99.90
59067;DHT22;44854;50.838;4.438;2022-10-16T15:08:51;20.20;99.90
59067;DHT22;44854;50.838;4.438;2022-10-16T15:11:17;20.10;99.90
59067;DHT22;44854;50.838;4.438;2022-10-16T15:13:44;20.20;99.90
59067;DHT22;44854;50.838;4.438;2022-10-16T15:16:10;20.30;99.90
59067;DHT22;44854;50.838;4.438;2022-10-16T15:18:36;20.20;99.90
59067;DHT22;44854;50.838;4.438;2022-10-16T15:21:03;20.20;99.90
59067;DHT22;44854;50.838;4.438;2022-10-16T15:23:28;20.10;99.90
59067;DHT22;44854;50.838;4.438;2022-10-16T15:25:54;20.20;99.90
59067;DHT22;44854;50.838;4.438;2022-10-16T15:28:21;20.00;99.90
59067;DHT22;44854;50.838;4.438;2022-10-16T15:30:48;20.00;99.90
59067;DHT22;44854;50.838;4.438;2022-10-16T15:33:15;20.20;99.90
59067;DHT22;44854;50.838;4.438;2022-10-16T15:35:41;20.10;99.90
59067;DHT22;44854;50.838;4.438;2022-10-16T15:38:09;20.00;99.90
59067;DHT22;44854;50.838;4.438;2022-10-16T15:40:35;19.90;99.90
59067;DHT22;44854;50.838;4.438;2022-10-16T15:43:00;19.80;99.90
59067;DHT22;44854;50.838;4.438;2022-10-16T15:45:26;19.80;99.90
59067;DHT22;44854;50.838;4.438;2022-10-16T15:47:52;19.70;99.90
59067;DHT22;44854;50.838;4.438;2022-10-16T15:50:17;19.60;99.90
59067;DHT22;44854;50.838;4.438;2022-10-16T15:52:43;19.40;99.90
59067;DHT22;44854;50.838;4.438;2022-10-16T15:55:10;19.40;99.90
59067;DHT22;44854;50.838;4.438;2022-10-16T15:57:36;19.30;99.90
59067;DHT22;44854;50.838;4.438;2022-10-16T16:00:11;19.20;99.90
59067;DHT22;44854;50.838;4.438;2022-10-16T16:02:38;19.10;99.90
59067;DHT22;44854;50.838;4.438;2022-10-16T16:05:03;19.10;99.90
59067;DHT22;44854;50.838;4.438;2022-10-16T16:07:32;19.00;99.90
59067;DHT22;44854;50.838;4.438;2022-10-16T16:09:57;19.00;99.90
59067;DHT22;44854;50.838;4.438;2022-10-16T16:12:23;19.00;99.90
59067;DHT22;44854;50.838;4.438;2022-10-16T16:14:48;19.00;99.90
59067;DHT22;44854;50.838;4.438;2022-10-16T16:17:14;19.10;99.90
59067;DHT22;44854;50.838;4.438;2022-10-16T16:19:39;19.10;99.90
59067;DHT22;44854;50.838;4.438;2022-10-16T16:22:05;19.10;99.90
59067;DHT22;44854;50.838;4.438;2022-10-16T16:24:31;19.10;99.90
59067;DHT22;44854;50.838;4.438;2022-10-16T16:26:56;19.00;99.90
59067;DHT22;44854;50.838;4.438;2022-10-16T16:29:22;18.90;99.90
59067;DHT22;44854;50.838;4.438;2022-10-16T16:31:47;18.80;99.90
59067;DHT22;44854;50.838;4.438;2022-10-16T16:34:13;18.70;99.90
59067;DHT22;44854;50.838;4.438;2022-10-16T16:36:39;18.70;99.90
59067;DHT22;44854;50.838;4.438;2022-10-16T16:39:05;18.70;99.90
59067;DHT22;44854;50.838;4.438;2022-10-16T16:41:31;18.70;99.90
59067;DHT22;44854;50.838;4.438;2022-10-16T16:44:01;18.70;99.90
59067;DHT22;44854;50.838;4.438;2022-10-16T16:46:26;18.60;99.90
59067;DHT22;44854;50.838;4.438;2022-10-16T16:48:52;18.50;99.90
59067;DHT22;44854;50.838;4.438;2022-10-16T16:51:20;18.30;99.90
59067;DHT22;44854;50.838;4.438;2022-10-16T16:53:47;18.20;99.90
59067;DHT22;44854;50.838;4.438;2022-10-16T16:56:13;18.20;99.90
59067;DHT22;44854;50.838;4.438;2022-10-16T16:58:39;18.10;99.90
59067;DHT22;44854;50.838;4.438;2022-10-16T17:01:05;18.10;99.90
59067;DHT22;44854;50.838;4.438;2022-10-16T17:03:31;18.00;99.90
59067;DHT22;44854;50.838;4.438;2022-10-16T17:06:01;17.70;99.90
59067;DHT22;44854;50.838;4.438;2022-10-16T17:08:27;17.80;99.90
59067;DHT22;44854;50.838;4.438;2022-10-16T17:10:53;17.90;99.90
59067;DHT22;44854;50.838;4.438;2022-10-16T17:13:23;17.90;99.90
59067;DHT22;44854;50.838;4.438;2022-10-16T17:15:49;17.80;99.90
59067;DHT22;44854;50.838;4.438;2022-10-16T17:18:15;17.90;99.90
59067;DHT22;44854;50.838;4.438;2022-10-16T17:20:42;17.80;99.90
59067;DHT22;44854;50.838;4.438;2022-10-16T17:23:08;17.60;99.90
59067;DHT22;44854;50.838;4.438;2022-10-16T17:25:37;17.60;99.90
59067;DHT22;44854;50.838;4.438;2022-10-16T17:28:02;17.60;99.90
59067;DHT22;44854;50.838;4.438;2022-10-16T17:30:28;17.60;99.90
59067;DHT22;44854;50.838;4.438;2022-10-16T17:32:54;17.50;99.90
59067;DHT22;44854;50.838;4.438;2022-10-16T17:35:19;17.30;99.90
59067;DHT22;44854;50.838;4.438;2022-10-16T17:37:47;17.20;99.90
59067;DHT22;44854;50.838;4.438;2022-10-16T17:40:13;17.20;99.90
59067;DHT22;44854;50.838;4.438;2022-10-16T17:42:38;17.20;99.90
59067;DHT22;44854;50.838;4.438;2022-10-16T17:45:04;17.20;99.90
59067;DHT22;44854;50.838;4.438;2022-10-16T17:47:30;17.20;99.90
59067;DHT22;44854;50.838;4.438;2022-10-16T17:49:55;17.20;99.90
59067;DHT22;44854;50.838;4.438;2022-10-16T17:52:23;17.30;99.90
59067;DHT22;44854;50.838;4.438;2022-10-16T17:54:51;17.30;99.90
59067;DHT22;44854;50.838;4.438;2022-10-16T17:57:17;17.40;99.90
59067;DHT22;44854;50.838;4.438;2022-10-16T17:59:42;17.40;99.90
59067;DHT22;44854;50.838;4.438;2022-10-16T18:02:08;17.30;99.90
59067;DHT22;44854;50.838;4.438;2022-10-16T18:04:34;17.30;99.90
59067;DHT22;44854;50.838;4.438;2022-10-16T18:07:00;17.30;99.90
59067;DHT22;44854;50.838;4.438;2022-10-16T18:09:26;17.20;99.90
59067;DHT22;44854;50.838;4.438;2022-10-16T18:11:54;17.20;99.90
59067;DHT22;44854;50.838;4.438;2022-10-16T18:14:25;17.20;99.90
59067;DHT22;44854;50.838;4.438;2022-10-16T18:16:50;17.20;99.90
59067;DHT22;44854;50.838;4.438;2022-10-16T18:19:17;17.20;99.90
59067;DHT22;44854;50.838;4.438;2022-10-16T18:21:43;17.10;99.90
59067;DHT22;44854;50.838;4.438;2022-10-16T18:24:09;17.10;99.90
59067;DHT22;44854;50.838;4.438;2022-10-16T18:26:34;17.10;99.90
59067;DHT22;44854;50.838;4.438;2022-10-16T18:29:00;17.10;99.90
59067;DHT22;44854;50.838;4.438;2022-10-16T18:31:27;17.10;99.90
59067;DHT22;44854;50.838;4.438;2022-10-16T18:33:52;17.10;99.90
59067;DHT22;44854;50.838;4.438;2022-10-16T18:36:23;16.90;99.90
59067;DHT22;44854;50.838;4.438;2022-10-16T18:38:49;16.80;99.90
59067;DHT22;44854;50.838;4.438;2022-10-16T18:41:15;16.80;99.90
59067;DHT22;44854;50.838;4.438;2022-10-16T18:43:41;16.80;99.90
59067;DHT22;44854;50.838;4.438;2022-10-16T18:46:09;16.70;99.90
59067;DHT22;44854;50.838;4.438;2022-10-16T18:48:35;16.80;99.90
59067;DHT22;44854;50.838;4.438;2022-10-16T18:51:20;16.70;99.90
59067;DHT22;44854;50.838;4.438;2022-10-16T18:53:47;16.70;99.90
59067;DHT22;44854;50.838;4.438;2022-10-16T18:56:14;16.90;99.90
59067;DHT22;44854;50.838;4.438;2022-10-16T18:58:40;16.90;99.90
59067;DHT22;44854;50.838;4.438;2022-10-16T19:01:09;16.90;99.90
59067;DHT22;44854;50.838;4.438;2022-10-16T19:03:35;16.90;99.90
59067;DHT22;44854;50.838;4.438;2022-10-16T19:06:04;17.00;99.90
59067;DHT22;44854;50.838;4.438;2022-10-16T19:08:30;17.00;99.90
59067;DHT22;44854;50.838;4.438;2022-10-16T19:11:04;17.10;99.90
59067;DHT22;44854;50.838;4.438;2022-10-16T19:13:30;17.10;99.90
59067;DHT22;44854;50.838;4.438;2022-10-16T19:15:56;17.00;99.90
59067;DHT22;44854;50.838;4.438;2022-10-16T19:18:22;16.70;99.90
59067;DHT22;44854;50.838;4.438;2022-10-16T19:20:48;16.70;99.90
59067;DHT22;44854;50.838;4.438;2022-10-16T19:23:14;16.80;99.90
59067;DHT22;44854;50.838;4.438;2022-10-16T19:25:39;16.90;99.90
59067;DHT22;44854;50.838;4.438;2022-10-16T19:28:05;16.90;99.90
59067;DHT22;44854;50.838;4.438;2022-10-16T19:30:38;16.80;99.90
59067;DHT22;44854;50.838;4.438;2022-10-16T19:33:04;16.80;99.90
59067;DHT22;44854;50.838;4.438;2022-10-16T19:35:30;16.90;99.90
59067;DHT22;44854;50.838;4.438;2022-10-16T19:37:57;16.80;99.90
59067;DHT22;44854;50.838;4.438;2022-10-16T19:40:22;16.70;99.90
59067;DHT22;44854;50.838;4.438;2022-10-16T19:42:48;16.70;99.90
59067;DHT22;44854;50.838;4.438;2022-10-16T19:45:14;16.70;99.90
59067;DHT22;44854;50.838;4.438;2022-10-16T19:47:40;16.80;99.90
59067;DHT22;44854;50.838;4.438;2022-10-16T19:50:05;16.70;99.90
59067;DHT22;44854;50.838;4.438;2022-10-16T19:52:34;16.70;99.90
59067;DHT22;44854;50.838;4.438;2022-10-16T19:54:59;16.60;99.90
59067;DHT22;44854;50.838;4.438;2022-10-16T19:57:25;16.50;99.90
59067;DHT22;44854;50.838;4.438;2022-10-16T19:59:51;16.50;99.90
59067;DHT22;44854;50.838;4.438;2022-10-16T20:02:17;16.50;99.90
59067;DHT22;44854;50.838;4.438;2022-10-16T20:04:43;16.60;99.90
59067;DHT22;44854;50.838;4.438;2022-10-16T20:07:08;16.60;99.90
59067;DHT22;44854;50.838;4.438;2022-10-16T20:09:34;16.60;99.90
59067;DHT22;44854;50.838;4.438;2022-10-16T20:12:00;16.60;99.90
59067;DHT22;44854;50.838;4.438;2022-10-16T20:14:26;16.60;99.90
59067;DHT22;44854;50.838;4.438;2022-10-16T20:16:57;16.60;99.90
59067;DHT22;44854;50.838;4.438;2022-10-16T20:19:22;16.50;99.90
59067;DHT22;44854;50.838;4.438;2022-10-16T20:21:48;16.50;99.90
59067;DHT22;44854;50.838;4.438;2022-10-16T20:24:14;16.40;99.90
59067;DHT22;44854;50.838;4.438;2022-10-16T20:26:42;16.30;99.90
59067;DHT22;44854;50.838;4.438;2022-10-16T20:29:08;16.30;99.90
59067;DHT22;44854;50.838;4.438;2022-10-16T20:31:33;16.30;99.90
59067;DHT22;44854;50.838;4.438;2022-10-16T20:34:06;16.30;99.90
59067;DHT22;44854;50.838;4.438;2022-10-16T20:36:32;16.30;99.90
59067;DHT22;44854;50.838;4.438;2022-10-16T20:38:59;16.30;99.90
59067;DHT22;44854;50.838;4.438;2022-10-16T20:41:24;16.30;99.90
59067;DHT22;44854;50.838;4.438;2022-10-16T20:43:51;16.30;99.90
59067;DHT22;44854;50.838;4.438;2022-10-16T20:46:18;16.10;99.90
59067;DHT22;44854;50.838;4.438;2022-10-16T20:48:44;16.00;99.90
59067;DHT22;44854;50.838;4.438;2022-10-16T20:51:17;16.10;99.90
59067;DHT22;44854;50.838;4.438;2022-10-16T20:53:44;16.10;99.90
59067;DHT22;44854;50.838;4.438;2022-10-16T20:56:13;16.10;99.90
59067;DHT22;44854;50.838;4.438;2022-10-16T20:58:40;16.10;99.90
59067;DHT22;44854;50.838;4.438;2022-10-16T21:01:14;16.20;99.90
59067;DHT22;44854;50.838;4.438;2022-10-16T21:03:43;16.20;99.90
59067;DHT22;44854;50.838;4.438;2022-10-16T21:06:09;16.10;99.90
59067;DHT22;44854;50.838;4.438;2022-10-16T21:08:36;16.00;99.90
59067;DHT22;44854;50.838;4.438;2022-10-16T21:11:08;16.00;99.90
59067;DHT22;44854;50.838;4.438;2022-10-16T21:13:34;15.90;99.90
59067;DHT22;44854;50.838;4.438;2022-10-16T21:16:02;16.00;99.90
59067;DHT22;44854;50.838;4.438;2022-10-16T21:18:28;16.00;99.90
59067;DHT22;44854;50.838;4.438;2022-10-16T21:20:54;15.90;99.90
59067;DHT22;44854;50.838;4.438;2022-10-16T21:23:19;15.90;99.90
59067;DHT22;44854;50.838;4.438;2022-10-16T21:25:48;15.90;99.90
59067;DHT22;44854;50.838;4.438;2022-10-16T21:28:14;15.90;99.90
59067;DHT22;44854;50.838;4.438;2022-10-16T21:30:39;15.80;99.90
59067;DHT22;44854;50.838;4.438;2022-10-16T21:33:04;15.80;99.90
59067;DHT22;44854;50.838;4.438;2022-10-16T21:35:30;15.80;99.90
59067;DHT22;44854;50.838;4.438;2022-10-16T21:37:55;15.80;99.90
59067;DHT22;44854;50.838;4.438;2022-10-16T21:40:21;15.80;99.90
59067;DHT22;44854;50.838;4.438;2022-10-16T21:42:46;15.80;99.90
59067;DHT22;44854;50.838;4.438;2022-10-16T21:45:12;15.90;99.90
59067;DHT22;44854;50.838;4.438;2022-10-16T21:47:37;15.90;99.90
59067;DHT22;44854;50.838;4.438;2022-10-16T21:50:03;15.90;99.90
59067;DHT22;44854;50.838;4.438;2022-10-16T21:52:29;15.90;99.90
59067;DHT22;44854;50.838;4.438;2022-10-16T21:54:54;15.90;99.90
59067;DHT22;44854;50.838;4.438;2022-10-16T21:57:20;15.90;99.90
59067;DHT22;44854;50.838;4.438;2022-10-16T21:59:45;15.80;99.90
